sensor_id;sensor_type;location;lat;lon;timestamp;temperature;humidity
73780;SHT30;62093;37.614;15.072;2022-07-29T00:00:07;26.18;56.00
73780;SHT30;62093;37.614;15.072;2022-07-29T00:02:33;26.20;55.99
73780;SHT30;62093;37.614;15.072;2022-07-29T00:04:59;26.18;56.02
73780;SHT30;62093;37.614;15.072;2022-07-29T00:07:26;26.16;55.99
73780;SHT30;62093;37.614;15.072;2022-07-29T00:09:51;26.16;56.01
73780;SHT30;62093;37.614;15.072;2022-07-29T00:12:22;26.16;56.03
73780;SHT30;62093;37.614;15.072;2022-07-29T00:14:48;26.16;55.99
73780;SHT30;62093;37.614;15.072;2022-07-29T00:17:14;26.16;56.06
73780;SHT30;62093;37.614;15.072;2022-07-29T00:19:40;26.14;56.06
73780;SHT30;62093;37.614;15.072;2022-07-29T00:22:06;26.14;56.01
73780;SHT30;62093;37.614;15.072;2022-07-29T00:24:32;26.11;56.05
73780;SHT30;62093;37.614;15.072;2022-07-29T00:26:57;26.14;56.03
73780;SHT30;62093;37.614;15.072;2022-07-29T00:29:24;26.11;56.10
73780;SHT30;62093;37.614;15.072;2022-07-29T00:31:50;26.13;56.05
73780;SHT30;62093;37.614;15.072;2022-07-29T00:34:16;26.10;56.10
73780;SHT30;62093;37.614;15.072;2022-07-29T00:37:00;26.08;56.08
73780;SHT30;62093;37.614;15.072;2022-07-29T00:39:26;26.08;56.13
73780;SHT30;62093;37.614;15.072;2022-07-29T00:41:52;26.08;56.07
73780;SHT30;62093;37.614;15.072;2022-07-29T00:44:18;26.08;56.15
73780;SHT30;62093;37.614;15.072;2022-07-29T00:46:44;26.11;56.18
73780;SHT30;62093;37.614;15.072;2022-07-29T00:49:09;26.08;56.14
73780;SHT30;62093;37.614;15.072;2022-07-29T00:51:36;26.07;56.19
73780;SHT30;62093;37.614;15.072;2022-07-29T00:54:03;26.05;56.20
73780;SHT30;62093;37.614;15.072;2022-07-29T00:56:33;26.05;56.19
73780;SHT30;62093;37.614;15.072;2022-07-29T00:58:59;26.05;56.20
73780;SHT30;62093;37.614;15.072;2022-07-29T01:01:26;26.05;56.20
73780;SHT30;62093;37.614;15.072;2022-07-29T01:03:53;26.04;56.25
73780;SHT30;62093;37.614;15.072;2022-07-29T01:06:19;26.05;56.23
73780;SHT30;62093;37.614;15.072;2022-07-29T01:08:47;26.02;56.25
73780;SHT30;62093;37.614;15.072;2022-07-29T01:11:15;26.02;56.31
73780;SHT30;62093;37.614;15.072;2022-07-29T01:13:42;26.02;56.19
73780;SHT30;62093;37.614;15.072;2022-07-29T01:16:13;26.02;56.27
73780;SHT30;62093;37.614;15.072;2022-07-29T01:18:45;26.02;56.27
73780;SHT30;62093;37.614;15.072;2022-07-29T01:24:18;25.98;56.23
73780;SHT30;62093;37.614;15.072;2022-07-29T01:29:49;25.97;56.34
73780;SHT30;62093;37.614;15.072;2022-07-29T01:32:22;25.97;56.40
73780;SHT30;62093;37.614;15.072;2022-07-29T01:37:43;25.98;56.46
73780;SHT30;62093;37.614;15.072;2022-07-29T01:40:22;25.96;56.30
73780;SHT30;62093;37.614;15.072;2022-07-29T01:42:52;25.97;56.39
73780;SHT30;62093;37.614;15.072;2022-07-29T01:45:41;25.96;56.40
73780;SHT30;62093;37.614;15.072;2022-07-29T01:48:29;25.96;56.41
73780;SHT30;62093;37.614;15.072;2022-07-29T01:51:13;25.97;56.45
73780;SHT30;62093;37.614;15.072;2022-07-29T01:54:10;25.94;56.45
73780;SHT30;62093;37.614;15.072;2022-07-29T01:56:38;25.93;56.44
73780;SHT30;62093;37.614;15.072;2022-07-29T01:59:06;25.91;56.51
73780;SHT30;62093;37.614;15.072;2022-07-29T02:01:35;25.91;56.50
73780;SHT30;62093;37.614;15.072;2022-07-29T02:04:06;25.91;56.45
73780;SHT30;62093;37.614;15.072;2022-07-29T02:06:34;25.88;56.58
73780;SHT30;62093;37.614;15.072;2022-07-29T02:09:02;25.90;56.52
73780;SHT30;62093;37.614;15.072;2022-07-29T02:11:31;25.88;56.53
73780;SHT30;62093;37.614;15.072;2022-07-29T02:14:00;25.90;56.58
73780;SHT30;62093;37.614;15.072;2022-07-29T02:16:29;25.90;56.63
73780;SHT30;62093;37.614;15.072;2022-07-29T02:18:57;25.87;56.59
73780;SHT30;62093;37.614;15.072;2022-07-29T02:21:25;25.86;56.62
73780;SHT30;62093;37.614;15.072;2022-07-29T02:23:52;25.87;56.57
73780;SHT30;62093;37.614;15.072;2022-07-29T02:26:23;25.88;56.56
73780;SHT30;62093;37.614;15.072;2022-07-29T02:28:52;25.87;56.64
73780;SHT30;62093;37.614;15.072;2022-07-29T02:31:28;25.87;56.61
73780;SHT30;62093;37.614;15.072;2022-07-29T02:33:55;25.86;56.48
73780;SHT30;62093;37.614;15.072;2022-07-29T02:36:23;25.86;56.54
73780;SHT30;62093;37.614;15.072;2022-07-29T02:38:50;25.86;56.59
73780;SHT30;62093;37.614;15.072;2022-07-29T02:41:23;25.86;56.59
73780;SHT30;62093;37.614;15.072;2022-07-29T02:43:55;25.86;56.57
73780;SHT30;62093;37.614;15.072;2022-07-29T02:46:30;25.86;56.50
73780;SHT30;62093;37.614;15.072;2022-07-29T02:49:35;25.86;56.65
73780;SHT30;62093;37.614;15.072;2022-07-29T02:52:04;25.84;56.64
73780;SHT30;62093;37.614;15.072;2022-07-29T02:57:03;25.80;56.73
73780;SHT30;62093;37.614;15.072;2022-07-29T02:59:34;25.81;56.64
73780;SHT30;62093;37.614;15.072;2022-07-29T03:02:02;25.81;56.71
73780;SHT30;62093;37.614;15.072;2022-07-29T03:04:30;25.83;56.66
73780;SHT30;62093;37.614;15.072;2022-07-29T03:06:58;25.81;56.68
73780;SHT30;62093;37.614;15.072;2022-07-29T03:09:25;25.80;56.71
73780;SHT30;62093;37.614;15.072;2022-07-29T03:11:52;25.81;56.46
73780;SHT30;62093;37.614;15.072;2022-07-29T03:14:20;25.80;56.56
73780;SHT30;62093;37.614;15.072;2022-07-29T03:16:46;25.78;56.64
73780;SHT30;62093;37.614;15.072;2022-07-29T03:19:13;25.77;56.75
73780;SHT30;62093;37.614;15.072;2022-07-29T03:21:39;25.77;56.71
73780;SHT30;62093;37.614;15.072;2022-07-29T03:24:05;25.80;56.77
73780;SHT30;62093;37.614;15.072;2022-07-29T03:26:31;25.77;56.75
73780;SHT30;62093;37.614;15.072;2022-07-29T03:28:57;25.73;56.72
73780;SHT30;62093;37.614;15.072;2022-07-29T03:31:23;25.78;56.75
73780;SHT30;62093;37.614;15.072;2022-07-29T03:33:49;25.77;56.75
73780;SHT30;62093;37.614;15.072;2022-07-29T03:36:15;25.76;56.74
73780;SHT30;62093;37.614;15.072;2022-07-29T03:38:42;25.76;56.74
73780;SHT30;62093;37.614;15.072;2022-07-29T03:41:11;25.71;56.76
73780;SHT30;62093;37.614;15.072;2022-07-29T03:43:40;25.76;56.86
73780;SHT30;62093;37.614;15.072;2022-07-29T03:46:09;25.71;56.71
73780;SHT30;62093;37.614;15.072;2022-07-29T03:48:37;25.74;56.95
73780;SHT30;62093;37.614;15.072;2022-07-29T03:51:04;25.71;56.72
73780;SHT30;62093;37.614;15.072;2022-07-29T03:53:31;25.71;56.80
73780;SHT30;62093;37.614;15.072;2022-07-29T03:55:59;25.70;56.73
73780;SHT30;62093;37.614;15.072;2022-07-29T03:58:26;25.70;56.72
73780;SHT30;62093;37.614;15.072;2022-07-29T04:00:54;25.73;56.86
73780;SHT30;62093;37.614;15.072;2022-07-29T04:03:21;25.67;56.70
73780;SHT30;62093;37.614;15.072;2022-07-29T04:06:01;25.67;56.69
73780;SHT30;62093;37.614;15.072;2022-07-29T04:08:28;25.67;56.84
73780;SHT30;62093;37.614;15.072;2022-07-29T04:10:53;25.66;56.87
73780;SHT30;62093;37.614;15.072;2022-07-29T04:13:20;25.67;56.74
73780;SHT30;62093;37.614;15.072;2022-07-29T04:15:46;25.66;56.85
73780;SHT30;62093;37.614;15.072;2022-07-29T04:18:12;25.66;56.71
73780;SHT30;62093;37.614;15.072;2022-07-29T04:20:38;25.66;56.83
73780;SHT30;62093;37.614;15.072;2022-07-29T04:23:03;25.65;56.91
73780;SHT30;62093;37.614;15.072;2022-07-29T04:25:29;25.65;56.51
73780;SHT30;62093;37.614;15.072;2022-07-29T04:27:55;25.63;56.78
73780;SHT30;62093;37.614;15.072;2022-07-29T04:30:28;25.66;56.76
73780;SHT30;62093;37.614;15.072;2022-07-29T04:32:54;25.65;56.73
73780;SHT30;62093;37.614;15.072;2022-07-29T04:35:20;25.66;56.89
73780;SHT30;62093;37.614;15.072;2022-07-29T04:37:46;25.63;56.86
73780;SHT30;62093;37.614;15.072;2022-07-29T04:40:12;25.66;56.81
73780;SHT30;62093;37.614;15.072;2022-07-29T04:42:38;25.63;56.58
73780;SHT30;62093;37.614;15.072;2022-07-29T04:45:04;25.63;56.52
73780;SHT30;62093;37.614;15.072;2022-07-29T04:47:30;25.63;56.47
73780;SHT30;62093;37.614;15.072;2022-07-29T04:49:56;25.62;56.77
73780;SHT30;62093;37.614;15.072;2022-07-29T04:52:22;25.66;56.81
73780;SHT30;62093;37.614;15.072;2022-07-29T04:54:49;25.65;56.77
73780;SHT30;62093;37.614;15.072;2022-07-29T04:57:14;25.65;56.59
73780;SHT30;62093;37.614;15.072;2022-07-29T04:59:40;25.62;56.65
73780;SHT30;62093;37.614;15.072;2022-07-29T05:02:06;25.63;56.64
73780;SHT30;62093;37.614;15.072;2022-07-29T05:04:32;25.63;56.80
73780;SHT30;62093;37.614;15.072;2022-07-29T05:06:58;25.65;56.67
73780;SHT30;62093;37.614;15.072;2022-07-29T05:09:24;25.63;56.46
73780;SHT30;62093;37.614;15.072;2022-07-29T05:11:50;25.62;56.64
73780;SHT30;62093;37.614;15.072;2022-07-29T05:14:15;25.65;56.46
73780;SHT30;62093;37.614;15.072;2022-07-29T05:16:41;25.65;56.71
73780;SHT30;62093;37.614;15.072;2022-07-29T05:19:07;25.67;56.51
73780;SHT30;62093;37.614;15.072;2022-07-29T05:21:33;25.67;56.34
73780;SHT30;62093;37.614;15.072;2022-07-29T05:23:59;25.66;56.35
73780;SHT30;62093;37.614;15.072;2022-07-29T05:26:25;25.67;56.64
73780;SHT30;62093;37.614;15.072;2022-07-29T05:28:51;25.69;56.44
73780;SHT30;62093;37.614;15.072;2022-07-29T05:31:16;25.69;56.39
73780;SHT30;62093;37.614;15.072;2022-07-29T05:33:42;25.73;56.44
73780;SHT30;62093;37.614;15.072;2022-07-29T05:36:08;25.71;56.50
73780;SHT30;62093;37.614;15.072;2022-07-29T05:38:35;25.71;56.32
73780;SHT30;62093;37.614;15.072;2022-07-29T05:41:01;25.73;56.53
73780;SHT30;62093;37.614;15.072;2022-07-29T05:43:29;25.73;56.34
73780;SHT30;62093;37.614;15.072;2022-07-29T05:45:56;25.73;56.48
73780;SHT30;62093;37.614;15.072;2022-07-29T05:48:22;25.71;56.51
73780;SHT30;62093;37.614;15.072;2022-07-29T05:50:48;25.77;56.65
73780;SHT30;62093;37.614;15.072;2022-07-29T05:53:14;25.74;56.64
73780;SHT30;62093;37.614;15.072;2022-07-29T05:55:40;25.74;56.70
73780;SHT30;62093;37.614;15.072;2022-07-29T05:58:06;25.74;56.74
73780;SHT30;62093;37.614;15.072;2022-07-29T06:00:31;25.77;56.71
73780;SHT30;62093;37.614;15.072;2022-07-29T06:02:57;25.77;56.78
73780;SHT30;62093;37.614;15.072;2022-07-29T06:05:23;25.76;56.72
73780;SHT30;62093;37.614;15.072;2022-07-29T06:07:49;25.78;56.75
73780;SHT30;62093;37.614;15.072;2022-07-29T06:10:15;25.81;56.83
73780;SHT30;62093;37.614;15.072;2022-07-29T06:12:40;25.81;56.82
73780;SHT30;62093;37.614;15.072;2022-07-29T06:15:07;25.83;56.76
73780;SHT30;62093;37.614;15.072;2022-07-29T06:17:33;25.83;56.81
73780;SHT30;62093;37.614;15.072;2022-07-29T06:19:58;25.84;56.78
73780;SHT30;62093;37.614;15.072;2022-07-29T06:22:24;25.84;56.66
73780;SHT30;62093;37.614;15.072;2022-07-29T06:24:50;25.87;56.63
73780;SHT30;62093;37.614;15.072;2022-07-29T06:27:16;25.86;56.67
73780;SHT30;62093;37.614;15.072;2022-07-29T06:29:42;25.88;56.68
73780;SHT30;62093;37.614;15.072;2022-07-29T06:32:07;25.87;56.66
73780;SHT30;62093;37.614;15.072;2022-07-29T06:34:35;25.88;56.61
73780;SHT30;62093;37.614;15.072;2022-07-29T06:37:08;25.88;56.76
73780;SHT30;62093;37.614;15.072;2022-07-29T06:39:37;25.91;56.79
73780;SHT30;62093;37.614;15.072;2022-07-29T06:42:06;25.88;56.68
73780;SHT30;62093;37.614;15.072;2022-07-29T06:44:33;25.90;56.68
73780;SHT30;62093;37.614;15.072;2022-07-29T06:47:02;25.93;56.66
73780;SHT30;62093;37.614;15.072;2022-07-29T06:49:28;25.94;56.68
73780;SHT30;62093;37.614;15.072;2022-07-29T06:51:54;25.91;56.64
73780;SHT30;62093;37.614;15.072;2022-07-29T06:54:20;25.94;56.64
73780;SHT30;62093;37.614;15.072;2022-07-29T06:56:47;25.93;56.68
73780;SHT30;62093;37.614;15.072;2022-07-29T06:59:13;25.96;56.70
73780;SHT30;62093;37.614;15.072;2022-07-29T07:01:41;25.96;56.69
73780;SHT30;62093;37.614;15.072;2022-07-29T07:04:08;25.94;56.65
73780;SHT30;62093;37.614;15.072;2022-07-29T07:06:37;25.97;56.59
73780;SHT30;62093;37.614;15.072;2022-07-29T07:09:03;25.96;56.58
73780;SHT30;62093;37.614;15.072;2022-07-29T07:11:29;25.97;56.58
73780;SHT30;62093;37.614;15.072;2022-07-29T07:13:55;25.98;56.56
73780;SHT30;62093;37.614;15.072;2022-07-29T07:16:20;26.01;56.56
73780;SHT30;62093;37.614;15.072;2022-07-29T07:18:46;26.01;56.52
73780;SHT30;62093;37.614;15.072;2022-07-29T07:21:12;26.00;56.55
73780;SHT30;62093;37.614;15.072;2022-07-29T07:23:38;26.00;56.53
73780;SHT30;62093;37.614;15.072;2022-07-29T07:26:04;26.02;56.48
73780;SHT30;62093;37.614;15.072;2022-07-29T07:28:31;26.02;56.43
73780;SHT30;62093;37.614;15.072;2022-07-29T07:30:57;26.01;56.33
73780;SHT30;62093;37.614;15.072;2022-07-29T07:33:23;26.04;56.26
73780;SHT30;62093;37.614;15.072;2022-07-29T07:35:49;26.02;56.25
73780;SHT30;62093;37.614;15.072;2022-07-29T07:38:15;26.01;56.20
73780;SHT30;62093;37.614;15.072;2022-07-29T07:40:41;26.05;56.15
73780;SHT30;62093;37.614;15.072;2022-07-29T07:43:07;26.04;56.16
73780;SHT30;62093;37.614;15.072;2022-07-29T07:45:32;26.07;56.11
73780;SHT30;62093;37.614;15.072;2022-07-29T07:47:59;26.07;56.07
73780;SHT30;62093;37.614;15.072;2022-07-29T07:50:24;26.08;56.06
73780;SHT30;62093;37.614;15.072;2022-07-29T07:52:53;26.08;56.05
73780;SHT30;62093;37.614;15.072;2022-07-29T07:55:20;26.07;56.03
73780;SHT30;62093;37.614;15.072;2022-07-29T07:57:46;26.08;55.98
73780;SHT30;62093;37.614;15.072;2022-07-29T08:00:13;26.08;56.00
73780;SHT30;62093;37.614;15.072;2022-07-29T08:02:40;26.11;55.97
73780;SHT30;62093;37.614;15.072;2022-07-29T08:05:06;26.10;55.93
73780;SHT30;62093;37.614;15.072;2022-07-29T08:07:33;26.10;55.97
73780;SHT30;62093;37.614;15.072;2022-07-29T08:09:59;26.11;55.92
73780;SHT30;62093;37.614;15.072;2022-07-29T08:12:25;26.13;55.90
73780;SHT30;62093;37.614;15.072;2022-07-29T08:14:51;26.14;55.93
73780;SHT30;62093;37.614;15.072;2022-07-29T08:17:16;26.13;55.87
73780;SHT30;62093;37.614;15.072;2022-07-29T08:19:42;26.13;55.87
73780;SHT30;62093;37.614;15.072;2022-07-29T08:22:08;26.14;55.86
73780;SHT30;62093;37.614;15.072;2022-07-29T08:24:34;26.11;55.85
73780;SHT30;62093;37.614;15.072;2022-07-29T08:27:10;26.14;55.83
73780;SHT30;62093;37.614;15.072;2022-07-29T08:29:36;26.13;55.81
73780;SHT30;62093;37.614;15.072;2022-07-29T08:32:03;26.14;55.80
73780;SHT30;62093;37.614;15.072;2022-07-29T08:34:28;26.16;55.82
73780;SHT30;62093;37.614;15.072;2022-07-29T08:36:55;26.17;55.78
73780;SHT30;62093;37.614;15.072;2022-07-29T08:39:22;26.17;55.82
73780;SHT30;62093;37.614;15.072;2022-07-29T08:41:48;26.17;55.79
73780;SHT30;62093;37.614;15.072;2022-07-29T08:44:17;26.18;55.75
73780;SHT30;62093;37.614;15.072;2022-07-29T08:46:43;26.17;55.79
73780;SHT30;62093;37.614;15.072;2022-07-29T08:49:09;26.18;55.73
73780;SHT30;62093;37.614;15.072;2022-07-29T08:51:36;26.20;55.74
73780;SHT30;62093;37.614;15.072;2022-07-29T08:54:02;26.20;55.76
73780;SHT30;62093;37.614;15.072;2022-07-29T08:56:28;26.22;55.73
73780;SHT30;62093;37.614;15.072;2022-07-29T08:58:56;26.21;55.73
73780;SHT30;62093;37.614;15.072;2022-07-29T09:01:25;26.22;55.69
73780;SHT30;62093;37.614;15.072;2022-07-29T09:03:55;26.22;55.69
73780;SHT30;62093;37.614;15.072;2022-07-29T09:06:22;26.24;55.67
73780;SHT30;62093;37.614;15.072;2022-07-29T09:08:52;26.22;55.69
73780;SHT30;62093;37.614;15.072;2022-07-29T09:11:18;26.24;55.63
73780;SHT30;62093;37.614;15.072;2022-07-29T09:13:43;26.25;55.66
73780;SHT30;62093;37.614;15.072;2022-07-29T09:16:09;26.25;55.58
73780;SHT30;62093;37.614;15.072;2022-07-29T09:18:40;26.27;55.60
73780;SHT30;62093;37.614;15.072;2022-07-29T09:21:15;26.25;55.59
73780;SHT30;62093;37.614;15.072;2022-07-29T09:24:07;26.28;55.57
73780;SHT30;62093;37.614;15.072;2022-07-29T09:26:41;26.29;55.53
73780;SHT30;62093;37.614;15.072;2022-07-29T09:29:21;26.29;55.54
73780;SHT30;62093;37.614;15.072;2022-07-29T09:31:49;26.31;55.51
73780;SHT30;62093;37.614;15.072;2022-07-29T09:34:26;26.31;55.52
73780;SHT30;62093;37.614;15.072;2022-07-29T09:36:54;26.32;55.52
73780;SHT30;62093;37.614;15.072;2022-07-29T09:39:31;26.32;55.46
73780;SHT30;62093;37.614;15.072;2022-07-29T09:41:59;26.32;55.43
73780;SHT30;62093;37.614;15.072;2022-07-29T09:44:25;26.34;55.44
73780;SHT30;62093;37.614;15.072;2022-07-29T09:46:55;26.37;55.44
73780;SHT30;62093;37.614;15.072;2022-07-29T09:49:21;26.34;55.41
73780;SHT30;62093;37.614;15.072;2022-07-29T09:51:47;26.37;55.40
73780;SHT30;62093;37.614;15.072;2022-07-29T09:54:25;26.39;55.39
73780;SHT30;62093;37.614;15.072;2022-07-29T09:56:52;26.38;55.39
73780;SHT30;62093;37.614;15.072;2022-07-29T09:59:18;26.41;55.32
73780;SHT30;62093;37.614;15.072;2022-07-29T10:01:46;26.38;55.29
73780;SHT30;62093;37.614;15.072;2022-07-29T10:04:12;26.41;55.34
73780;SHT30;62093;37.614;15.072;2022-07-29T10:06:58;26.44;55.28
73780;SHT30;62093;37.614;15.072;2022-07-29T10:09:25;26.42;55.29
73780;SHT30;62093;37.614;15.072;2022-07-29T10:12:07;26.44;55.24
73780;SHT30;62093;37.614;15.072;2022-07-29T10:14:35;26.47;55.25
73780;SHT30;62093;37.614;15.072;2022-07-29T10:17:02;26.47;55.21
73780;SHT30;62093;37.614;15.072;2022-07-29T10:19:32;26.47;55.21
73780;SHT30;62093;37.614;15.072;2022-07-29T10:22:01;26.49;55.16
73780;SHT30;62093;37.614;15.072;2022-07-29T10:24:29;26.49;55.17
73780;SHT30;62093;37.614;15.072;2022-07-29T10:26:56;26.49;55.14
73780;SHT30;62093;37.614;15.072;2022-07-29T10:29:22;26.48;55.17
73780;SHT30;62093;37.614;15.072;2022-07-29T10:35:01;26.51;55.13
73780;SHT30;62093;37.614;15.072;2022-07-29T10:43:42;26.53;55.04
73780;SHT30;62093;37.614;15.072;2022-07-29T10:46:10;26.56;54.99
73780;SHT30;62093;37.614;15.072;2022-07-29T10:51:59;26.60;54.94
73780;SHT30;62093;37.614;15.072;2022-07-29T10:54:45;26.58;54.94
73780;SHT30;62093;37.614;15.072;2022-07-29T10:59:48;26.59;54.89
73780;SHT30;62093;37.614;15.072;2022-07-29T11:10:38;26.62;54.86
73780;SHT30;62093;37.614;15.072;2022-07-29T11:13:04;26.60;54.88
73780;SHT30;62093;37.614;15.072;2022-07-29T11:15:56;26.65;54.84
73780;SHT30;62093;37.614;15.072;2022-07-29T11:18:23;26.63;54.83
73780;SHT30;62093;37.614;15.072;2022-07-29T11:20:50;26.65;54.78
73780;SHT30;62093;37.614;15.072;2022-07-29T11:28:49;26.68;54.78
73780;SHT30;62093;37.614;15.072;2022-07-29T11:31:19;26.68;54.72
73780;SHT30;62093;37.614;15.072;2022-07-29T11:33:45;26.71;54.72
73780;SHT30;62093;37.614;15.072;2022-07-29T11:36:13;26.68;54.71
73780;SHT30;62093;37.614;15.072;2022-07-29T11:38:39;26.67;54.71
73780;SHT30;62093;37.614;15.072;2022-07-29T11:43:47;26.72;54.68
73780;SHT30;62093;37.614;15.072;2022-07-29T11:46:14;26.72;54.62
73780;SHT30;62093;37.614;15.072;2022-07-29T11:48:43;26.73;54.58
73780;SHT30;62093;37.614;15.072;2022-07-29T11:51:10;26.73;54.62
73780;SHT30;62093;37.614;15.072;2022-07-29T11:53:38;26.75;54.54
73780;SHT30;62093;37.614;15.072;2022-07-29T11:56:08;26.76;54.55
73780;SHT30;62093;37.614;15.072;2022-07-29T11:58:34;26.75;54.51
73780;SHT30;62093;37.614;15.072;2022-07-29T12:01:01;26.79;54.50
73780;SHT30;62093;37.614;15.072;2022-07-29T12:03:28;26.79;54.49
73780;SHT30;62093;37.614;15.072;2022-07-29T12:05:54;26.76;54.49
73780;SHT30;62093;37.614;15.072;2022-07-29T12:08:23;26.78;54.46
73780;SHT30;62093;37.614;15.072;2022-07-29T12:10:51;26.80;54.45
73780;SHT30;62093;37.614;15.072;2022-07-29T12:13:19;26.78;54.49
73780;SHT30;62093;37.614;15.072;2022-07-29T12:15:56;26.80;54.41
73780;SHT30;62093;37.614;15.072;2022-07-29T12:18:23;26.78;54.43
73780;SHT30;62093;37.614;15.072;2022-07-29T12:20:59;26.82;54.36
73780;SHT30;62093;37.614;15.072;2022-07-29T12:23:25;26.85;54.34
73780;SHT30;62093;37.614;15.072;2022-07-29T12:25:51;26.82;54.32
73780;SHT30;62093;37.614;15.072;2022-07-29T12:28:17;26.83;54.33
73780;SHT30;62093;37.614;15.072;2022-07-29T12:30:49;26.83;54.37
73780;SHT30;62093;37.614;15.072;2022-07-29T12:33:20;26.82;54.33
73780;SHT30;62093;37.614;15.072;2022-07-29T12:35:49;26.86;54.31
73780;SHT30;62093;37.614;15.072;2022-07-29T12:38:16;26.85;54.26
73780;SHT30;62093;37.614;15.072;2022-07-29T12:40:43;26.86;54.29
73780;SHT30;62093;37.614;15.072;2022-07-29T12:43:15;26.86;54.22
73780;SHT30;62093;37.614;15.072;2022-07-29T12:45:44;26.89;54.22
73780;SHT30;62093;37.614;15.072;2022-07-29T12:48:10;26.90;54.20
73780;SHT30;62093;37.614;15.072;2022-07-29T12:50:51;26.89;54.17
73780;SHT30;62093;37.614;15.072;2022-07-29T12:53:17;26.90;54.16
73780;SHT30;62093;37.614;15.072;2022-07-29T12:55:46;26.93;54.11
73780;SHT30;62093;37.614;15.072;2022-07-29T12:58:29;26.92;54.00
73780;SHT30;62093;37.614;15.072;2022-07-29T13:01:15;26.93;54.05
73780;SHT30;62093;37.614;15.072;2022-07-29T13:06:44;26.93;54.10
73780;SHT30;62093;37.614;15.072;2022-07-29T13:09:17;26.96;54.12
73780;SHT30;62093;37.614;15.072;2022-07-29T13:11:49;26.95;54.01
73780;SHT30;62093;37.614;15.072;2022-07-29T13:14:35;26.93;54.02
73780;SHT30;62093;37.614;15.072;2022-07-29T13:17:14;26.98;54.01
73780;SHT30;62093;37.614;15.072;2022-07-29T13:22:14;26.95;53.95
73780;SHT30;62093;37.614;15.072;2022-07-29T13:24:53;26.99;53.98
73780;SHT30;62093;37.614;15.072;2022-07-29T13:27:25;27.00;53.90
73780;SHT30;62093;37.614;15.072;2022-07-29T13:29:52;27.00;53.95
73780;SHT30;62093;37.614;15.072;2022-07-29T13:32:19;27.03;53.93
73780;SHT30;62093;37.614;15.072;2022-07-29T13:34:45;27.02;53.95
73780;SHT30;62093;37.614;15.072;2022-07-29T13:37:11;27.00;53.89
73780;SHT30;62093;37.614;15.072;2022-07-29T13:39:37;27.02;53.79
73780;SHT30;62093;37.614;15.072;2022-07-29T13:42:04;27.03;53.78
73780;SHT30;62093;37.614;15.072;2022-07-29T13:44:30;27.04;53.82
73780;SHT30;62093;37.614;15.072;2022-07-29T13:46:56;27.03;53.78
73780;SHT30;62093;37.614;15.072;2022-07-29T13:49:22;27.06;53.79
73780;SHT30;62093;37.614;15.072;2022-07-29T13:51:49;27.04;53.76
73780;SHT30;62093;37.614;15.072;2022-07-29T13:54:15;27.06;53.76
73780;SHT30;62093;37.614;15.072;2022-07-29T13:56:41;27.04;53.71
73780;SHT30;62093;37.614;15.072;2022-07-29T13:59:07;27.09;53.68
73780;SHT30;62093;37.614;15.072;2022-07-29T14:01:34;27.07;53.73
73780;SHT30;62093;37.614;15.072;2022-07-29T14:04:00;27.11;53.68
73780;SHT30;62093;37.614;15.072;2022-07-29T14:06:26;27.07;53.65
73780;SHT30;62093;37.614;15.072;2022-07-29T14:08:52;27.10;53.64
73780;SHT30;62093;37.614;15.072;2022-07-29T14:11:18;27.13;53.57
73780;SHT30;62093;37.614;15.072;2022-07-29T14:13:44;27.13;53.55
73780;SHT30;62093;37.614;15.072;2022-07-29T14:16:10;27.13;53.57
73780;SHT30;62093;37.614;15.072;2022-07-29T14:18:36;27.11;53.60
73780;SHT30;62093;37.614;15.072;2022-07-29T14:21:02;27.11;53.62
73780;SHT30;62093;37.614;15.072;2022-07-29T14:23:28;27.17;53.55
73780;SHT30;62093;37.614;15.072;2022-07-29T14:25:54;27.14;53.56
73780;SHT30;62093;37.614;15.072;2022-07-29T14:28:20;27.14;53.51
73780;SHT30;62093;37.614;15.072;2022-07-29T14:30:46;27.17;53.53
73780;SHT30;62093;37.614;15.072;2022-07-29T14:33:12;27.14;53.66
73780;SHT30;62093;37.614;15.072;2022-07-29T14:35:38;27.16;53.45
73780;SHT30;62093;37.614;15.072;2022-07-29T14:38:03;27.17;53.45
73780;SHT30;62093;37.614;15.072;2022-07-29T14:40:29;27.16;53.50
73780;SHT30;62093;37.614;15.072;2022-07-29T14:42:55;27.14;53.52
73780;SHT30;62093;37.614;15.072;2022-07-29T14:45:21;27.17;53.47
73780;SHT30;62093;37.614;15.072;2022-07-29T14:47:48;27.19;53.48
73780;SHT30;62093;37.614;15.072;2022-07-29T14:50:15;27.22;53.45
73780;SHT30;62093;37.614;15.072;2022-07-29T14:52:42;27.17;53.47
73780;SHT30;62093;37.614;15.072;2022-07-29T14:55:08;27.19;53.46
73780;SHT30;62093;37.614;15.072;2022-07-29T14:57:34;27.22;53.49
73780;SHT30;62093;37.614;15.072;2022-07-29T15:00:01;27.19;53.48
73780;SHT30;62093;37.614;15.072;2022-07-29T15:02:28;27.19;53.45
73780;SHT30;62093;37.614;15.072;2022-07-29T15:04:54;27.20;53.40
73780;SHT30;62093;37.614;15.072;2022-07-29T15:07:20;27.16;53.51
73780;SHT30;62093;37.614;15.072;2022-07-29T15:09:47;27.20;53.49
73780;SHT30;62093;37.614;15.072;2022-07-29T15:12:13;27.19;53.49
73780;SHT30;62093;37.614;15.072;2022-07-29T15:14:39;27.17;53.50
73780;SHT30;62093;37.614;15.072;2022-07-29T15:17:05;27.16;53.47
73780;SHT30;62093;37.614;15.072;2022-07-29T15:19:31;27.16;53.63
73780;SHT30;62093;37.614;15.072;2022-07-29T15:21:57;27.16;53.53
73780;SHT30;62093;37.614;15.072;2022-07-29T15:24:22;27.17;53.56
73780;SHT30;62093;37.614;15.072;2022-07-29T15:26:48;27.19;53.49
73780;SHT30;62093;37.614;15.072;2022-07-29T15:29:14;28.91;50.58
73780;SHT30;62093;37.614;15.072;2022-07-29T15:31:40;31.16;44.91
73780;SHT30;62093;37.614;15.072;2022-07-29T15:34:06;31.83;42.64
73780;SHT30;62093;37.614;15.072;2022-07-29T15:36:32;31.56;43.25
73780;SHT30;62093;37.614;15.072;2022-07-29T15:38:58;30.61;44.62
73780;SHT30;62093;37.614;15.072;2022-07-29T15:41:24;28.76;48.66
73780;SHT30;62093;37.614;15.072;2022-07-29T15:43:49;28.05;50.74
73780;SHT30;62093;37.614;15.072;2022-07-29T15:46:17;27.70;51.82
73780;SHT30;62093;37.614;15.072;2022-07-29T15:49:03;27.57;52.31
73780;SHT30;62093;37.614;15.072;2022-07-29T15:51:29;27.50;52.54
73780;SHT30;62093;37.614;15.072;2022-07-29T15:53:55;27.41;52.75
73780;SHT30;62093;37.614;15.072;2022-07-29T15:56:22;27.33;53.00
73780;SHT30;62093;37.614;15.072;2022-07-29T15:58:48;27.37;52.82
73780;SHT30;62093;37.614;15.072;2022-07-29T16:01:14;27.31;53.07
73780;SHT30;62093;37.614;15.072;2022-07-29T16:03:40;27.34;52.94
73780;SHT30;62093;37.614;15.072;2022-07-29T16:06:06;27.29;53.26
73780;SHT30;62093;37.614;15.072;2022-07-29T16:08:32;27.30;53.05